createdAt,value
2023-05-21T00:00:56.536Z,19.80
2023-05-21T00:03:22.820Z,19.13
2023-05-21T00:05:49.111Z,19.58
2023-05-21T00:08:15.431Z,19.38
2023-05-21T00:10:41.716Z,15.65
2023-05-21T00:13:07.950Z,16.67
2023-05-21T00:15:34.411Z,17.55
2023-05-21T00:18:00.879Z,15.75
2023-05-21T00:20:27.114Z,18.20
2023-05-21T00:22:53.316Z,17.80
2023-05-21T00:25:19.516Z,15.88
2023-05-21T00:27:45.770Z,17.42
2023-05-21T00:30:11.972Z,20.88
2023-05-21T00:32:38.214Z,18.83
2023-05-21T00:35:04.501Z,17.88
2023-05-21T00:37:30.713Z,16.48
2023-05-21T00:39:58.257Z,18.63
2023-05-21T00:42:24.658Z,16.33
2023-05-21T00:44:50.887Z,16.23
2023-05-21T00:47:17.147Z,17.27
2023-05-21T00:49:43.340Z,16.52
2023-05-21T00:52:09.524Z,18.38
2023-05-21T00:54:35.711Z,15.70
2023-05-21T00:57:01.952Z,19.65
2023-05-21T00:59:28.182Z,17.98
2023-05-21T01:01:54.408Z,19.35
2023-05-21T01:04:20.648Z,19.88
2023-05-21T01:06:46.834Z,18.52
2023-05-21T01:09:13.003Z,17.17
2023-05-21T01:11:39.190Z,19.27
2023-05-21T01:14:05.365Z,16.05
2023-05-21T01:16:31.569Z,17.30
2023-05-21T01:18:57.950Z,16.95
2023-05-21T01:21:24.274Z,20.65
2023-05-21T01:23:50.498Z,21.17
2023-05-21T01:26:16.732Z,19.27
2023-05-21T01:28:42.948Z,24.75
2023-05-21T01:31:09.157Z,17.92
2023-05-21T01:33:35.420Z,16.35
2023-05-21T01:36:01.685Z,19.52
2023-05-21T01:38:27.914Z,17.65
2023-05-21T01:40:54.131Z,19.38
2023-05-21T01:43:20.370Z,18.95
2023-05-21T01:45:46.575Z,18.02
2023-05-21T01:48:12.782Z,20.33
2023-05-21T01:50:38.982Z,17.13
2023-05-21T01:53:05.227Z,22.40
2023-05-21T01:55:31.423Z,19.30
2023-05-21T01:57:57.873Z,18.13
2023-05-21T02:00:24.896Z,19.02
2023-05-21T02:02:51.187Z,19.10
2023-05-21T02:05:17.419Z,17.50
2023-05-21T02:07:43.617Z,19.52
2023-05-21T02:10:09.780Z,15.00
2023-05-21T02:12:35.993Z,19.02
2023-05-21T02:15:02.161Z,25.73
2023-05-21T02:17:28.380Z,18.65
2023-05-21T02:19:54.555Z,19.55
2023-05-21T02:22:20.721Z,18.02
2023-05-21T02:24:46.910Z,18.63
2023-05-21T02:27:13.156Z,22.63
2023-05-21T02:29:39.315Z,17.95
2023-05-21T02:32:05.521Z,17.83
2023-05-21T02:34:31.757Z,20.63
2023-05-21T02:36:57.951Z,18.48
2023-05-21T02:39:24.177Z,18.15
2023-05-21T02:41:50.371Z,17.67
2023-05-21T02:44:16.601Z,19.25
2023-05-21T02:46:42.907Z,20.50
2023-05-21T02:49:09.142Z,17.70
2023-05-21T02:51:35.358Z,16.63
2023-05-21T02:54:01.529Z,20.52
2023-05-21T02:56:30.070Z,16.35
2023-05-21T02:58:56.300Z,17.63
2023-05-21T03:01:22.562Z,19.08
2023-05-21T03:03:48.869Z,20.63
2023-05-21T03:06:15.055Z,19.83
2023-05-21T03:08:41.238Z,18.77
2023-05-21T03:11:07.450Z,19.38
2023-05-21T03:13:33.730Z,19.52
2023-05-21T03:16:09.895Z,18.20
2023-05-21T03:18:38.147Z,17.10
2023-05-21T03:21:04.415Z,18.85
2023-05-21T03:23:30.649Z,16.92
2023-05-21T03:25:56.889Z,17.27
2023-05-21T03:28:23.095Z,17.40
2023-05-21T03:30:49.306Z,17.95
2023-05-21T03:33:19.982Z,20.15
2023-05-21T03:35:46.250Z,19.70
2023-05-21T03:38:12.468Z,22.63
2023-05-21T03:40:38.681Z,17.05
2023-05-21T03:43:04.870Z,17.40
2023-05-21T03:45:31.078Z,17.85
2023-05-21T03:47:57.257Z,20.85
2023-05-21T03:50:23.454Z,21.60
2023-05-21T03:52:49.676Z,19.45
2023-05-21T03:55:15.897Z,18.10
2023-05-21T03:57:42.248Z,20.05
2023-05-21T04:00:08.491Z,20.02
2023-05-21T04:02:34.784Z,23.02
2023-05-21T04:05:01.032Z,21.10
2023-05-21T04:07:27.251Z,17.00
2023-05-21T04:09:53.433Z,17.08
2023-05-21T04:12:19.657Z,19.58
2023-05-21T04:14:45.869Z,17.77
2023-05-21T04:17:12.160Z,19.83
2023-05-21T04:19:38.436Z,15.98
2023-05-21T04:22:04.715Z,18.27
2023-05-21T04:24:30.946Z,17.10
2023-05-21T04:26:57.154Z,18.80
2023-05-21T04:29:23.383Z,18.40
2023-05-21T04:31:49.732Z,18.77
2023-05-21T04:34:16.006Z,16.95
2023-05-21T04:36:42.153Z,18.90
2023-05-21T04:39:08.343Z,21.30
2023-05-21T04:41:34.508Z,23.63
2023-05-21T04:44:00.687Z,20.23
2023-05-21T04:46:26.937Z,16.13
2023-05-21T04:48:53.247Z,18.73
2023-05-21T04:51:19.458Z,18.00
2023-05-21T04:53:45.672Z,21.65
2023-05-21T04:56:11.863Z,19.40
2023-05-21T04:58:38.068Z,17.27
2023-05-21T05:01:07.463Z,17.95
2023-05-21T05:03:33.859Z,21.17
2023-05-21T05:06:00.117Z,17.33
2023-05-21T05:08:26.309Z,15.98
2023-05-21T05:10:52.536Z,18.05
2023-05-21T05:13:18.700Z,18.45
2023-05-21T05:15:45.298Z,18.67
2023-05-21T05:18:12.344Z,18.20
2023-05-21T05:20:38.570Z,18.02
2023-05-21T05:23:04.833Z,15.82
2023-05-21T05:25:31.088Z,18.52
2023-05-21T05:27:57.325Z,20.83
2023-05-21T05:30:23.516Z,18.88
2023-05-21T05:32:49.991Z,18.30
2023-05-21T05:35:16.236Z,16.45
2023-05-21T05:37:42.449Z,19.45
2023-05-21T05:40:08.673Z,15.00
2023-05-21T05:42:34.867Z,17.35
2023-05-21T05:45:01.064Z,22.25
2023-05-21T05:47:27.304Z,19.23
2023-05-21T05:49:53.569Z,16.90
2023-05-21T05:52:19.780Z,17.52
2023-05-21T05:54:46.005Z,17.52
2023-05-21T05:57:12.196Z,20.30
2023-05-21T05:59:38.414Z,15.77
2023-05-21T06:02:04.623Z,18.13
2023-05-21T06:04:30.828Z,15.55
2023-05-21T06:06:57.027Z,16.85
2023-05-21T06:09:23.217Z,18.98
2023-05-21T06:11:49.443Z,16.88
2023-05-21T06:14:15.600Z,18.38
2023-05-21T06:16:41.813Z,15.35
2023-05-21T06:19:08.123Z,14.45
2023-05-21T06:21:34.376Z,16.63
2023-05-21T06:24:00.611Z,18.95
2023-05-21T06:26:26.795Z,16.08
2023-05-21T06:28:52.990Z,15.63
2023-05-21T06:31:19.204Z,15.88
2023-05-21T06:33:45.557Z,18.48
2023-05-21T06:36:11.931Z,17.13
2023-05-21T06:38:38.155Z,13.65
2023-05-21T06:41:04.794Z,16.73
2023-05-21T06:43:30.966Z,13.70
2023-05-21T06:45:57.184Z,12.65
2023-05-21T06:48:23.430Z,13.50
2023-05-21T06:50:49.642Z,14.18
2023-05-21T06:53:15.827Z,14.65
2023-05-21T06:55:42.020Z,13.50
2023-05-21T06:58:08.245Z,14.02
2023-05-21T07:00:34.506Z,15.98
2023-05-21T07:03:00.857Z,14.20
2023-05-21T07:05:27.174Z,15.80
2023-05-21T07:07:53.359Z,15.40
2023-05-21T07:10:19.628Z,14.43
2023-05-21T07:12:45.852Z,12.82
2023-05-21T07:15:12.101Z,12.05
2023-05-21T07:17:38.322Z,12.27
2023-05-21T07:20:05.567Z,15.57
2023-05-21T07:22:34.003Z,15.88
2023-05-21T07:25:00.207Z,11.90
2023-05-21T07:27:26.476Z,13.15
2023-05-21T07:29:52.719Z,19.50
2023-05-21T07:32:18.947Z,12.68
2023-05-21T07:34:45.170Z,16.77
2023-05-21T07:37:11.408Z,14.35
2023-05-21T07:39:37.645Z,12.52
2023-05-21T07:42:03.910Z,11.10
2023-05-21T07:44:30.145Z,15.25
2023-05-21T07:46:56.376Z,14.07
2023-05-21T07:49:22.533Z,10.35
2023-05-21T07:51:48.764Z,12.00
2023-05-21T07:54:14.980Z,12.10
2023-05-21T07:56:41.164Z,13.15
2023-05-21T07:59:07.398Z,15.00
2023-05-21T08:01:33.629Z,12.77
2023-05-21T08:03:59.953Z,11.52
2023-05-21T08:09:06.647Z,12.45
2023-05-21T08:11:33.055Z,11.70
2023-05-21T08:13:59.303Z,11.05
2023-05-21T08:16:25.522Z,12.70
2023-05-21T08:18:51.829Z,12.48
2023-05-21T08:21:18.062Z,14.10
2023-05-21T08:23:44.288Z,11.88
2023-05-21T08:26:10.481Z,11.60
2023-05-21T08:28:36.759Z,13.68
2023-05-21T08:31:07.277Z,12.05
2023-05-21T08:33:33.581Z,10.25
2023-05-21T08:35:59.884Z,12.52
2023-05-21T08:38:27.528Z,10.52
2023-05-21T08:40:55.675Z,11.43
2023-05-21T08:43:21.927Z,8.98
2023-05-21T08:45:48.168Z,12.88
2023-05-21T08:48:14.382Z,10.68
2023-05-21T08:50:40.630Z,11.55
2023-05-21T08:53:15.961Z,14.07
2023-05-21T08:55:51.243Z,10.88
2023-05-21T08:58:17.940Z,10.30
2023-05-21T09:00:44.140Z,11.57
2023-05-21T09:03:10.503Z,11.18
2023-05-21T09:05:37.015Z,10.98
2023-05-21T09:08:03.381Z,13.55
2023-05-21T09:10:29.994Z,9.60
2023-05-21T09:12:56.160Z,11.30
2023-05-21T09:15:22.406Z,13.50
2023-05-21T09:17:48.706Z,10.52
2023-05-21T09:20:15.069Z,12.15
2023-05-21T09:22:41.557Z,10.98
2023-05-21T09:25:07.794Z,13.82
2023-05-21T09:27:33.984Z,10.00
2023-05-21T09:30:00.192Z,13.10
2023-05-21T09:32:26.466Z,10.00
2023-05-21T09:34:52.692Z,9.65
2023-05-21T09:37:26.992Z,8.93
2023-05-21T09:39:53.994Z,10.85
2023-05-21T09:42:20.204Z,9.85
2023-05-21T09:44:46.379Z,11.10
2023-05-21T09:47:12.569Z,12.38
2023-05-21T09:49:38.807Z,10.32
2023-05-21T09:52:05.090Z,9.32
2023-05-21T09:54:31.329Z,10.55
2023-05-21T09:56:57.503Z,12.80
2023-05-21T09:59:24.004Z,10.38
2023-05-21T10:01:50.306Z,10.00
2023-05-21T10:04:16.590Z,11.70
2023-05-21T10:06:42.840Z,11.60
2023-05-21T10:09:09.114Z,11.60
2023-05-21T10:11:35.535Z,10.30
2023-05-21T10:14:01.808Z,10.95
2023-05-21T10:16:28.114Z,10.18
2023-05-21T10:18:54.379Z,11.25
2023-05-21T10:21:20.590Z,12.40
2023-05-21T10:23:46.820Z,8.73
2023-05-21T10:26:13.039Z,13.15
2023-05-21T10:28:39.272Z,9.52
2023-05-21T10:31:05.506Z,9.70
2023-05-21T10:33:31.758Z,10.48
2023-05-21T10:35:58.019Z,10.23
2023-05-21T10:38:24.250Z,10.43
2023-05-21T10:40:50.453Z,12.75
2023-05-21T10:43:16.640Z,9.90
2023-05-21T10:45:42.912Z,13.68
2023-05-21T10:48:09.214Z,8.55
2023-05-21T10:50:35.714Z,10.10
2023-05-21T10:53:17.596Z,11.60
2023-05-21T10:55:43.804Z,11.05
2023-05-21T10:58:09.987Z,10.43
2023-05-21T11:00:36.438Z,11.70
2023-05-21T11:03:02.895Z,10.25
2023-05-21T11:05:29.211Z,10.75
2023-05-21T11:07:55.412Z,8.77
2023-05-21T11:10:21.720Z,9.27
2023-05-21T11:12:47.964Z,12.50
2023-05-21T11:15:14.194Z,10.63
2023-05-21T11:17:40.522Z,8.77
2023-05-21T11:20:06.869Z,9.07
2023-05-21T11:22:33.052Z,8.82
2023-05-21T11:24:59.268Z,8.23
2023-05-21T11:27:25.427Z,10.27
2023-05-21T11:29:51.633Z,8.68
2023-05-21T11:32:17.886Z,10.77
2023-05-21T11:34:44.089Z,8.75
2023-05-21T11:37:10.328Z,12.25
2023-05-21T11:39:36.532Z,9.48
2023-05-21T11:42:04.431Z,10.82
2023-05-21T11:44:31.022Z,11.20
2023-05-21T11:46:57.233Z,10.15
2023-05-21T11:49:23.513Z,9.55
2023-05-21T11:51:49.782Z,10.25
2023-05-21T11:54:15.994Z,9.88
2023-05-21T11:56:42.196Z,11.77
2023-05-21T11:59:08.410Z,9.40
2023-05-21T12:01:34.649Z,10.13
2023-05-21T12:04:01.004Z,8.40
2023-05-21T12:06:27.263Z,7.88
2023-05-21T12:08:53.466Z,9.30
2023-05-21T12:11:19.696Z,9.10
2023-05-21T12:13:45.942Z,7.32
2023-05-21T12:16:12.170Z,8.82
2023-05-21T12:18:39.085Z,10.13
2023-05-21T12:21:05.290Z,9.45
2023-05-21T12:23:31.498Z,8.38
2023-05-21T12:25:57.691Z,10.50
2023-05-21T12:28:23.901Z,9.20
2023-05-21T12:30:50.105Z,8.43
2023-05-21T12:33:16.305Z,8.23
2023-05-21T12:35:42.600Z,8.85
2023-05-21T12:38:08.862Z,7.85
2023-05-21T12:40:35.213Z,7.47
2023-05-21T12:43:01.526Z,9.13
2023-05-21T12:45:27.766Z,8.38
2023-05-21T12:47:55.379Z,7.90
2023-05-21T12:50:21.612Z,7.65
2023-05-21T12:52:47.847Z,7.28
2023-05-21T12:55:14.081Z,7.50
2023-05-21T12:57:40.278Z,7.40
2023-05-21T13:00:06.490Z,10.20
2023-05-21T13:02:32.767Z,6.95
2023-05-21T13:04:59.007Z,9.18
2023-05-21T13:07:25.198Z,7.80
2023-05-21T13:09:51.420Z,7.60
2023-05-21T13:12:17.624Z,6.30
2023-05-21T13:14:43.868Z,7.28
2023-05-21T13:17:10.148Z,6.38
2023-05-21T13:19:36.421Z,8.93
2023-05-21T13:22:02.697Z,6.25
2023-05-21T13:24:28.866Z,8.00
2023-05-21T13:26:55.086Z,9.77
2023-05-21T13:29:21.369Z,7.93
2023-05-21T13:31:47.593Z,7.28
2023-05-21T13:34:13.845Z,8.50
2023-05-21T13:36:40.019Z,11.40
2023-05-21T13:39:06.446Z,9.65
2023-05-21T13:41:32.712Z,6.22
2023-05-21T13:43:58.935Z,8.07
2023-05-21T13:46:25.147Z,7.97
2023-05-21T13:48:51.343Z,6.43
2023-05-21T13:51:30.813Z,6.82
2023-05-21T13:54:03.802Z,7.15
2023-05-21T13:56:30.030Z,10.48
2023-05-21T13:58:56.197Z,6.80
2023-05-21T14:01:22.481Z,6.88
2023-05-21T14:03:48.727Z,9.30
2023-05-21T14:06:16.666Z,7.03
2023-05-21T14:08:42.941Z,9.93
2023-05-21T14:11:09.252Z,8.95
2023-05-21T14:13:35.527Z,6.95
2023-05-21T14:16:01.820Z,8.10
2023-05-21T14:18:28.073Z,7.82
2023-05-21T14:20:54.307Z,6.25
2023-05-21T14:23:20.517Z,10.15
2023-05-21T14:25:46.733Z,8.25
2023-05-21T14:28:12.951Z,7.85
2023-05-21T14:30:39.196Z,6.00
2023-05-21T14:33:05.454Z,7.57
2023-05-21T14:35:31.685Z,7.45
2023-05-21T14:37:57.859Z,6.63
2023-05-21T14:40:24.053Z,8.18
2023-05-21T14:42:50.256Z,6.50
2023-05-21T14:45:19.425Z,6.05
2023-05-21T14:47:45.800Z,7.45
2023-05-21T14:50:11.980Z,8.15
2023-05-21T14:52:38.160Z,7.95
2023-05-21T14:55:04.378Z,7.07
2023-05-21T14:57:32.888Z,7.10
2023-05-21T14:59:59.124Z,5.82
2023-05-21T15:02:25.465Z,6.25
2023-05-21T15:04:51.759Z,6.88
2023-05-21T15:07:17.953Z,8.23
2023-05-21T15:09:44.151Z,14.73
2023-05-21T15:12:10.378Z,6.78
2023-05-21T15:14:36.623Z,6.95
2023-05-21T15:17:02.834Z,8.77
2023-05-21T15:19:29.042Z,6.25
2023-05-21T15:21:55.305Z,8.13
2023-05-21T15:24:21.474Z,7.95
2023-05-21T15:26:47.687Z,7.75
2023-05-21T15:29:13.894Z,7.03
2023-05-21T15:31:40.149Z,7.30
2023-05-21T15:34:06.397Z,7.63
2023-05-21T15:36:32.612Z,6.47
2023-05-21T15:39:01.708Z,11.10
2023-05-21T15:41:30.712Z,8.68
2023-05-21T15:43:56.965Z,6.53
2023-05-21T15:46:23.214Z,7.28
2023-05-21T15:48:49.476Z,6.95
2023-05-21T15:51:15.706Z,7.20
2023-05-21T15:53:41.919Z,8.45
2023-05-21T15:56:08.167Z,6.55
2023-05-21T15:58:34.427Z,7.82
2023-05-21T16:01:00.731Z,6.90
2023-05-21T16:03:27.098Z,6.80
2023-05-21T16:05:53.369Z,7.07
2023-05-21T16:08:19.749Z,8.38
2023-05-21T16:10:45.995Z,6.10
2023-05-21T16:13:12.313Z,8.50
2023-05-21T16:15:38.652Z,6.38
2023-05-21T16:18:05.181Z,9.43
2023-05-21T16:20:31.444Z,6.93
2023-05-21T16:22:57.608Z,7.63
2023-05-21T16:25:23.831Z,7.57
2023-05-21T16:27:50.032Z,8.02
2023-05-21T16:30:16.250Z,9.48
2023-05-21T16:32:42.533Z,6.53
2023-05-21T16:35:08.784Z,7.35
2023-05-21T16:37:35.007Z,7.00
2023-05-21T16:40:01.229Z,5.82
2023-05-21T16:42:27.438Z,6.03
2023-05-21T16:44:53.642Z,9.30
2023-05-21T16:47:20.124Z,7.10
2023-05-21T16:49:46.460Z,7.53
2023-05-21T16:52:12.666Z,6.70
2023-05-21T16:54:38.931Z,8.20
2023-05-21T16:57:05.205Z,6.50
2023-05-21T16:59:31.414Z,6.15
2023-05-21T17:01:57.646Z,6.18
2023-05-21T17:04:24.008Z,8.55
2023-05-21T17:06:50.216Z,5.70
2023-05-21T17:09:18.116Z,9.63
2023-05-21T17:11:47.157Z,7.97
2023-05-21T17:14:17.506Z,7.07
2023-05-21T17:16:49.828Z,8.38
2023-05-21T17:19:16.088Z,8.65
2023-05-21T17:21:42.414Z,8.70
2023-05-21T17:24:08.639Z,6.40
2023-05-21T17:26:34.883Z,6.50
2023-05-21T17:29:01.196Z,8.35
2023-05-21T17:31:27.444Z,7.45
2023-05-21T17:33:53.626Z,7.22
2023-05-21T17:36:19.867Z,6.15
2023-05-21T17:38:46.076Z,10.68
2023-05-21T17:41:12.304Z,7.43
2023-05-21T17:43:38.522Z,7.22
2023-05-21T17:46:04.787Z,6.22
2023-05-21T17:48:31.016Z,8.23
2023-05-21T17:50:57.220Z,10.70
2023-05-21T17:53:23.449Z,11.65
2023-05-21T17:55:49.690Z,9.27
2023-05-21T17:58:15.887Z,8.63
2023-05-21T18:00:42.156Z,7.75
2023-05-21T18:03:08.487Z,7.40
2023-05-21T18:05:34.938Z,10.50
2023-05-21T18:08:01.387Z,7.50
2023-05-21T18:10:27.710Z,8.30
2023-05-21T18:12:53.941Z,9.82
2023-05-21T18:15:20.158Z,8.40
2023-05-21T18:17:46.434Z,8.23
2023-05-21T18:20:12.665Z,7.38
2023-05-21T18:22:38.934Z,9.90
2023-05-21T18:27:55.188Z,6.97
2023-05-21T18:30:35.584Z,8.25
2023-05-21T18:33:09.396Z,9.10
2023-05-21T18:35:35.680Z,7.85
2023-05-21T18:40:42.008Z,7.87
2023-05-21T18:43:14.512Z,8.70
2023-05-21T18:45:53.858Z,9.85
2023-05-21T18:48:32.374Z,7.60
2023-05-21T18:50:58.720Z,10.90
2023-05-21T18:53:33.960Z,9.60
2023-05-21T18:56:00.185Z,7.95
2023-05-21T19:07:04.167Z,7.85
2023-05-21T19:09:33.282Z,8.07
2023-05-21T19:14:51.546Z,10.90
2023-05-21T19:17:51.369Z,8.88
2023-05-21T19:20:07.692Z,9.70
2023-05-21T19:22:39.680Z,10.77
2023-05-21T19:25:05.922Z,11.38
2023-05-21T19:27:32.155Z,8.57
2023-05-21T19:30:10.754Z,8.45
2023-05-21T19:32:46.344Z,9.70
2023-05-21T19:43:24.809Z,9.80
2023-05-21T19:48:35.867Z,9.00
2023-05-21T19:51:02.049Z,9.32
2023-05-21T19:53:28.255Z,9.10
2023-05-21T19:55:54.453Z,16.42
2023-05-21T20:01:11.534Z,12.45
2023-05-21T20:03:44.142Z,10.07
2023-05-21T20:11:30.568Z,12.13
2023-05-21T20:16:47.366Z,10.13
2023-05-21T20:19:14.796Z,12.15
2023-05-21T20:21:41.078Z,13.38
2023-05-21T20:24:07.271Z,10.57
2023-05-21T20:26:33.505Z,10.02
2023-05-21T20:28:59.686Z,12.48
2023-05-21T20:31:25.951Z,12.10
2023-05-21T20:33:52.244Z,12.88
2023-05-21T20:36:18.467Z,11.93
2023-05-21T20:38:44.648Z,11.93
2023-05-21T20:41:13.206Z,10.80
2023-05-21T20:43:39.452Z,9.95
2023-05-21T20:46:05.772Z,11.00
2023-05-21T20:48:32.130Z,10.68
2023-05-21T20:50:58.372Z,10.52
2023-05-21T20:53:24.568Z,12.30
2023-05-21T20:55:50.818Z,11.20
2023-05-21T20:58:17.021Z,11.70
2023-05-21T21:00:43.232Z,11.65
2023-05-21T21:03:09.555Z,12.20
2023-05-21T21:05:35.835Z,11.02
2023-05-21T21:08:02.081Z,11.27
2023-05-21T21:10:28.276Z,14.60
2023-05-21T21:12:54.477Z,11.40
2023-05-21T21:15:20.702Z,12.65
2023-05-21T21:17:47.051Z,12.02
2023-05-21T21:20:17.486Z,14.10
2023-05-21T21:22:43.683Z,12.67
2023-05-21T21:25:09.923Z,13.57
2023-05-21T21:27:36.111Z,12.90
2023-05-21T21:30:02.384Z,10.13
2023-05-21T21:32:28.583Z,12.77
2023-05-21T21:34:54.844Z,13.23
2023-05-21T21:37:21.152Z,10.48
2023-05-21T21:39:47.336Z,11.73
2023-05-21T21:42:13.562Z,16.50
2023-05-21T21:44:39.756Z,12.65
2023-05-21T21:47:05.933Z,12.90
2023-05-21T21:49:32.156Z,12.52
2023-05-21T21:51:58.330Z,15.65
2023-05-21T21:54:24.493Z,13.48
2023-05-21T21:56:50.685Z,12.65
2023-05-21T21:59:16.909Z,14.35
2023-05-21T22:01:43.234Z,12.57
2023-05-21T22:04:09.628Z,10.38
2023-05-21T22:06:35.936Z,13.32
2023-05-21T22:09:02.207Z,10.65
2023-05-21T22:11:28.549Z,13.70
2023-05-21T22:13:54.816Z,12.32
2023-05-21T22:16:21.107Z,11.60
2023-05-21T22:18:47.401Z,11.25
2023-05-21T22:21:13.651Z,12.07
2023-05-21T22:23:39.838Z,10.85
2023-05-21T22:26:06.026Z,12.48
2023-05-21T22:28:32.340Z,14.95
2023-05-21T22:30:58.681Z,12.38
2023-05-21T22:33:24.996Z,12.48
2023-05-21T22:35:51.285Z,12.27
2023-05-21T22:38:17.463Z,19.08
2023-05-21T22:40:43.650Z,12.20
2023-05-21T22:43:09.859Z,13.27
2023-05-21T22:45:36.101Z,13.48
2023-05-21T22:48:02.379Z,14.15
2023-05-21T22:50:28.639Z,12.90
2023-05-21T22:52:54.848Z,12.85
2023-05-21T22:55:21.047Z,14.88
2023-05-21T22:57:47.271Z,15.52
2023-05-21T23:00:13.429Z,16.05
2023-05-21T23:02:39.702Z,13.23
2023-05-21T23:05:06.017Z,17.35
2023-05-21T23:07:32.353Z,14.85
2023-05-21T23:09:58.606Z,13.75
2023-05-21T23:12:24.803Z,14.32
2023-05-21T23:14:50.970Z,13.35
2023-05-21T23:17:17.182Z,17.00
2023-05-21T23:19:43.434Z,13.45
2023-05-21T23:22:09.631Z,14.45
2023-05-21T23:24:35.820Z,15.27
2023-05-21T23:27:02.264Z,15.68
2023-05-21T23:29:28.604Z,12.52
2023-05-21T23:31:54.838Z,15.32
2023-05-21T23:34:21.085Z,13.52
2023-05-21T23:36:47.261Z,16.45
2023-05-21T23:39:13.499Z,18.33
2023-05-21T23:41:39.682Z,15.55
2023-05-21T23:44:05.861Z,14.20
2023-05-21T23:46:32.092Z,14.60
2023-05-21T23:48:58.340Z,14.98
2023-05-21T23:51:24.529Z,12.98
2023-05-21T23:53:50.751Z,13.90
2023-05-21T23:56:16.932Z,13.82
2023-05-21T23:58:43.166Z,14.52
